Time;durP1;ratioP1;P1;durP2;ratioP2;P2;SDS_P1;SDS_P2;PMS_P1;PMS_P2;Temp;Humidity;BMP_temperature;BMP_pressure;BME280_temperature;BME280_humidity;BME280_pressure;Samples;Min_cycle;Max_cycle;Signal;HPM_P1;HPM_P2
2020/12/18 00:00:52;;;;;;;4.75;3.30;;;10.30;67.90;;;;;;2103588;28;20697;-72
2020/12/18 00:01:53;;;;;;;3.75;3.28;;;10.30;68.00;;;;;;2107228;28;20076;-72
2020/12/18 00:02:54;;;;;;;5.03;3.28;;;10.30;68.00;;;;;;2113037;28;20035;-71
2020/12/18 00:03:55;;;;;;;4.80;2.83;;;10.30;68.10;;;;;;2113790;28;20051;-72
2020/12/18 00:04:56;;;;;;;5.40;3.00;;;10.30;68.10;;;;;;2113932;28;20517;-72
2020/12/18 00:05:57;;;;;;;5.75;3.22;;;10.30;68.20;;;;;;2104558;28;20162;-72
2020/12/18 00:06:57;;;;;;;5.75;2.90;;;10.30;68.20;;;;;;2104246;28;20042;-71
2020/12/18 00:07:59;;;;;;;5.20;3.10;;;10.30;68.20;;;;;;2113921;28;20024;-72
2020/12/18 00:09:00;;;;;;;3.58;3.05;;;10.30;68.20;;;;;;2113436;28;20051;-73
2020/12/18 00:10:01;;;;;;;3.70;3.08;;;10.30;68.30;;;;;;2113278;28;20678;-71
2020/12/18 00:11:01;;;;;;;4.07;2.90;;;10.30;68.30;;;;;;2113243;28;20079;-72
2020/12/18 00:12:02;;;;;;;5.82;3.10;;;10.30;68.30;;;;;;2113833;28;20078;-72
2020/12/18 00:13:03;;;;;;;4.35;2.70;;;10.30;68.40;;;;;;2113583;28;20031;-72
2020/12/18 00:14:03;;;;;;;4.55;3.35;;;10.30;68.40;;;;;;2112075;28;20044;-72
2020/12/18 00:15:04;;;;;;;6.97;3.47;;;10.20;68.30;;;;;;2114379;28;20023;-71
2020/12/18 00:16:05;;;;;;;6.20;3.25;;;10.30;69.10;;;;;;2112767;28;20050;-72
2020/12/18 00:17:05;;;;;;;4.57;3.00;;;10.30;68.40;;;;;;2105076;28;20343;-72
2020/12/18 00:18:06;;;;;;;5.53;3.30;;;10.20;68.40;;;;;;2104649;28;20082;-71
2020/12/18 00:19:07;;;;;;;3.20;2.90;;;10.20;68.40;;;;;;2113553;28;20036;-71
2020/12/18 00:20:07;;;;;;;4.72;2.97;;;10.20;68.40;;;;;;2113798;28;20043;-72
2020/12/18 00:21:08;;;;;;;3.05;2.83;;;10.20;68.30;;;;;;2114394;28;20030;-72
2020/12/18 00:22:08;;;;;;;5.57;3.20;;;10.20;68.40;;;;;;2114101;28;20035;-71
2020/12/18 00:23:09;;;;;;;4.90;3.10;;;10.20;68.40;;;;;;2113605;28;20020;-71
2020/12/18 00:24:09;;;;;;;4.88;3.13;;;10.20;68.40;;;;;;2103529;28;20423;-72
2020/12/18 00:25:10;;;;;;;5.88;3.45;;;10.20;68.50;;;;;;2104128;28;20097;-72
2020/12/18 00:26:10;;;;;;;6.13;4.32;;;10.20;68.40;;;;;;2113855;28;20020;-70
2020/12/18 00:27:11;;;;;;;6.05;3.83;;;10.20;68.50;;;;;;2113495;28;20442;-71
2020/12/18 00:28:12;;;;;;;6.63;3.55;;;10.20;68.40;;;;;;2112532;28;20020;-71
2020/12/18 00:29:12;;;;;;;6.18;2.95;;;10.20;68.50;;;;;;2113157;28;20036;-71
2020/12/18 00:30:13;;;;;;;3.20;2.90;;;10.20;68.50;;;;;;2111616;28;20011;-71
2020/12/18 00:31:14;;;;;;;6.63;3.22;;;10.20;68.50;;;;;;2102626;28;20035;-72
2020/12/18 00:32:15;;;;;;;4.13;3.42;;;10.20;68.50;;;;;;2104008;28;20501;-72
2020/12/18 00:33:15;;;;;;;5.25;3.10;;;10.20;68.50;;;;;;2110228;28;20026;-71
2020/12/18 00:34:16;;;;;;;5.28;3.08;;;10.20;68.50;;;;;;2113561;28;20047;-72
2020/12/18 00:35:17;;;;;;;2.85;2.60;;;10.20;68.50;;;;;;2104916;28;20043;-71
2020/12/18 00:36:17;;;;;;;4.30;3.00;;;10.20;68.50;;;;;;2104741;28;20937;-73
2020/12/18 00:37:20;;;;;;;4.05;3.10;;;10.20;68.50;;;;;;2105331;28;20077;-71
2020/12/18 00:38:21;;;;;;;3.28;2.83;;;10.20;68.40;;;;;;2104786;28;20020;-72
2020/12/18 00:39:22;;;;;;;6.30;3.05;;;10.20;68.40;;;;;;2113730;28;20346;-71
2020/12/18 00:40:22;;;;;;;3.67;2.90;;;10.20;68.40;;;;;;2112648;28;20146;-71
2020/12/18 00:41:23;;;;;;;5.50;3.28;;;10.20;68.40;;;;;;2112170;28;20114;-71
2020/12/18 00:42:23;;;;;;;3.92;2.92;;;10.20;68.40;;;;;;2113497;28;20035;-71
2020/12/18 00:43:24;;;;;;;3.03;2.58;;;10.20;68.40;;;;;;2113542;28;20015;-71
2020/12/18 00:44:24;;;;;;;4.10;2.92;;;10.20;68.40;;;;;;2113303;28;20405;-72
2020/12/18 00:45:25;;;;;;;6.05;3.15;;;10.20;68.30;;;;;;2113388;28;20358;-73
2020/12/18 00:46:25;;;;;;;6.30;2.88;;;10.20;68.30;;;;;;2112836;28;20032;-71
2020/12/18 00:47:26;;;;;;;3.22;2.70;;;10.10;68.20;;;;;;2113881;28;20110;-71
2020/12/18 00:48:26;;;;;;;4.30;2.88;;;10.20;68.30;;;;;;2113733;28;20031;-71
2020/12/18 00:49:27;;;;;;;4.32;2.97;;;10.10;68.20;;;;;;2113894;28;20718;-71
2020/12/18 00:50:28;;;;;;;4.75;2.65;;;10.10;68.20;;;;;;2112846;28;20476;-71
2020/12/18 00:51:28;;;;;;;4.10;2.80;;;10.10;68.20;;;;;;2112791;28;20449;-71
2020/12/18 00:52:29;;;;;;;3.65;2.83;;;10.10;68.20;;;;;;2113483;28;20023;-71
2020/12/18 00:53:30;;;;;;;5.55;2.97;;;10.10;68.10;;;;;;2113531;28;20040;-71
2020/12/18 00:54:30;;;;;;;4.82;3.05;;;10.10;68.20;;;;;;2112770;28;20119;-72
2020/12/18 00:55:31;;;;;;;5.50;2.80;;;10.10;68.20;;;;;;2113926;28;20012;-71
2020/12/18 00:56:32;;;;;;;3.85;2.70;;;10.10;68.30;;;;;;2112776;28;20034;-72
2020/12/18 00:57:32;;;;;;;3.30;2.80;;;10.10;68.20;;;;;;2104349;28;20515;-70
2020/12/18 00:58:33;;;;;;;4.38;3.00;;;10.10;68.30;;;;;;2104751;28;20749;-72
2020/12/18 00:59:33;;;;;;;3.78;2.53;;;10.00;68.20;;;;;;2112774;28;20111;-73
2020/12/18 01:00:34;;;;;;;3.83;2.60;;;10.00;68.20;;;;;;2112963;28;20350;-73
2020/12/18 01:01:34;;;;;;;6.90;2.83;;;10.00;68.20;;;;;;2112443;28;20040;-73
2020/12/18 01:02:35;;;;;;;4.53;2.92;;;10.00;68.20;;;;;;2112847;28;20085;-73
2020/12/18 01:03:35;;;;;;;4.68;3.08;;;10.00;68.30;;;;;;2114112;28;20023;-73
2020/12/18 01:04:36;;;;;;;4.97;2.90;;;10.00;68.30;;;;;;2113476;28;20038;-73
2020/12/18 01:05:37;;;;;;;4.88;2.70;;;10.00;68.30;;;;;;2113349;28;20454;-73
2020/12/18 01:06:37;;;;;;;4.43;2.80;;;10.00;68.30;;;;;;2114128;28;20415;-73
2020/12/18 01:07:38;;;;;;;5.32;2.90;;;10.00;68.30;;;;;;2112719;28;20424;-73
2020/12/18 01:08:38;;;;;;;6.40;2.80;;;10.00;68.30;;;;;;2113433;28;20039;-73
2020/12/18 01:09:39;;;;;;;6.20;2.97;;;10.00;68.30;;;;;;2113702;28;20109;-73
2020/12/18 01:10:39;;;;;;;5.38;2.95;;;10.00;68.30;;;;;;2112279;28;20042;-73
2020/12/18 01:11:40;;;;;;;3.83;2.47;;;10.00;68.40;;;;;;2113144;28;20054;-73
2020/12/18 01:12:40;;;;;;;2.95;2.28;;;10.00;68.40;;;;;;2112375;28;20031;-72
2020/12/18 01:13:41;;;;;;;4.68;2.72;;;9.90;68.40;;;;;;2112948;28;20441;-71
2020/12/18 01:14:42;;;;;;;4.78;3.00;;;9.90;68.40;;;;;;2112978;28;20043;-71
2020/12/18 01:15:42;;;;;;;3.53;2.67;;;9.90;68.40;;;;;;2112344;28;20052;-73
2020/12/18 01:16:49;;;;;;;4.70;3.20;;;10.00;68.40;;;;;;2113217;28;20069;-71
2020/12/18 01:17:49;;;;;;;3.70;2.90;;;10.00;68.50;;;;;;2112964;28;20019;-73
2020/12/18 01:18:50;;;;;;;3.78;2.67;;;9.90;68.40;;;;;;2113307;28;20051;-72
2020/12/18 01:19:51;;;;;;;7.70;2.70;;;9.90;68.40;;;;;;2113329;28;20012;-71
2020/12/18 01:20:52;;;;;;;4.30;3.00;;;9.90;68.40;;;;;;2112424;28;20028;-73
2020/12/18 01:21:53;;;;;;;4.03;2.35;;;10.00;68.50;;;;;;2113350;28;20023;-73
2020/12/18 01:22:54;;;;;;;5.40;2.88;;;9.90;69.10;;;;;;2113029;28;20041;-72
2020/12/18 01:23:54;;;;;;;2.63;2.42;;;9.90;68.40;;;;;;2113418;28;20038;-73
2020/12/18 01:24:55;;;;;;;3.53;2.55;;;9.90;68.50;;;;;;2113587;28;20024;-73
2020/12/18 01:25:56;;;;;;;5.07;3.35;;;9.90;68.50;;;;;;2113152;28;20555;-73
2020/12/18 01:26:57;;;;;;;4.30;2.60;;;9.90;68.50;;;;;;2112873;28;20036;-73
2020/12/18 01:27:57;;;;;;;6.53;2.78;;;9.90;68.50;;;;;;2113644;28;20034;-73
2020/12/18 01:28:58;;;;;;;3.95;2.78;;;9.90;68.50;;;;;;2103513;28;20024;-71
2020/12/18 01:29:59;;;;;;;4.10;2.42;;;9.90;68.50;;;;;;2104193;28;20091;-71
2020/12/18 01:30:59;;;;;;;5.50;2.60;;;9.90;68.60;;;;;;2112778;28;20015;-73
2020/12/18 01:32:00;;;;;;;4.45;2.50;;;9.90;68.60;;;;;;2112586;28;20130;-73
2020/12/18 01:33:00;;;;;;;4.15;2.60;;;9.90;68.60;;;;;;2113047;28;20062;-73
2020/12/18 01:34:01;;;;;;;2.67;2.20;;;9.90;68.60;;;;;;2113039;28;20070;-71
2020/12/18 01:35:01;;;;;;;3.88;2.85;;;9.90;68.60;;;;;;2112981;28;20042;-71
2020/12/18 01:36:02;;;;;;;4.82;2.70;;;9.80;68.60;;;;;;2113465;28;20136;-73
2020/12/18 01:37:02;;;;;;;2.50;2.30;;;9.80;68.50;;;;;;2112687;28;20065;-73
2020/12/18 01:38:03;;;;;;;2.70;2.50;;;9.80;68.60;;;;;;2112550;28;20402;-73
2020/12/18 01:39:05;;;;;;;6.05;2.90;;;9.80;68.60;;;;;;2113144;28;20097;-73
2020/12/18 01:40:05;;;;;;;5.15;2.70;;;9.80;68.60;;;;;;2113118;28;20442;-72
2020/12/18 01:41:06;;;;;;;3.35;2.40;;;9.80;68.60;;;;;;2113110;28;20039;-71
2020/12/18 01:42:06;;;;;;;5.07;2.65;;;9.80;68.60;;;;;;2112195;28;20442;-73
2020/12/18 01:43:07;;;;;;;5.88;2.88;;;9.80;68.60;;;;;;2103213;28;20469;-73
2020/12/18 01:44:08;;;;;;;4.78;2.30;;;9.80;68.60;;;;;;2103686;28;20044;-73
2020/12/18 01:45:08;;;;;;;5.68;2.83;;;9.80;68.70;;;;;;2095674;28;20031;-73
2020/12/18 01:46:12;;;;;;;3.95;2.40;;;9.80;68.70;;;;;;2095080;28;20035;-73
2020/12/18 01:47:29;;;;;;;4.60;2.38;;;9.80;68.80;;;;;;2113456;28;20036;-73
2020/12/18 01:48:31;;;;;;;4.47;2.15;;;9.90;69.00;;;;;;2112454;28;20099;-73
2020/12/18 01:49:32;;;;;;;3.80;2.83;;;9.80;68.70;;;;;;2112767;28;20023;-73
2020/12/18 01:50:32;;;;;;;2.97;2.50;;;9.80;68.70;;;;;;2113530;28;20489;-71
2020/12/18 01:51:33;;;;;;;3.50;2.80;;;9.80;68.70;;;;;;2112951;28;20110;-71
2020/12/18 01:52:35;;;;;;;2.72;2.33;;;9.80;68.70;;;;;;2112197;28;20075;-71
2020/12/18 01:53:37;;;;;;;4.28;2.58;;;9.80;68.70;;;;;;2112856;28;20684;-71
2020/12/18 01:54:37;;;;;;;4.07;2.67;;;9.80;68.80;;;;;;2111741;28;20703;-71
2020/12/18 01:55:38;;;;;;;4.25;2.30;;;9.80;68.80;;;;;;2113489;28;20061;-71
2020/12/18 01:56:39;;;;;;;3.38;2.35;;;9.80;68.80;;;;;;2112902;28;20035;-73
2020/12/18 01:57:40;;;;;;;3.63;2.42;;;9.80;68.80;;;;;;2112392;28;20036;-73
2020/12/18 01:58:43;;;;;;;3.45;2.40;;;9.80;68.80;;;;;;2111629;28;20035;-72
2020/12/18 01:59:44;;;;;;;2.47;2.28;;;9.80;68.80;;;;;;2112709;28;20123;-73
2020/12/18 02:00:47;;;;;;;8.15;2.75;;;9.80;68.70;;;;;;2111835;28;20040;-72
2020/12/18 02:01:49;;;;;;;3.83;2.45;;;9.70;68.70;;;;;;2112401;28;20345;-73
2020/12/18 02:02:50;;;;;;;4.28;2.58;;;9.80;68.70;;;;;;2112620;28;20485;-73
2020/12/18 02:03:51;;;;;;;5.43;3.05;;;9.70;68.70;;;;;;2113480;28;20027;-72
2020/12/18 02:04:52;;;;;;;4.20;2.50;;;9.80;68.70;;;;;;2112415;28;20016;-70
2020/12/18 02:05:55;;;;;;;5.28;3.05;;;9.80;68.70;;;;;;2112856;28;20346;-72
2020/12/18 02:07:00;;;;;;;4.32;2.63;;;9.80;68.70;;;;;;2113081;28;20032;-72
2020/12/18 02:08:03;;;;;;;4.55;2.80;;;9.70;68.70;;;;;;2112747;28;20026;-72
2020/12/18 02:09:05;;;;;;;5.47;2.60;;;9.80;68.70;;;;;;2111609;28;20027;-73
2020/12/18 02:10:06;;;;;;;3.78;2.80;;;9.80;68.70;;;;;;2112328;28;20176;-72
2020/12/18 02:11:09;;;;;;;3.28;2.60;;;9.80;68.80;;;;;;2112009;28;20119;-73
2020/12/18 02:12:09;;;;;;;6.35;2.88;;;9.70;68.70;;;;;;2112519;28;20048;-72
2020/12/18 02:13:10;;;;;;;7.70;3.33;;;9.70;68.70;;;;;;2112111;28;20108;-72
2020/12/18 02:14:13;;;;;;;5.82;2.63;;;9.70;68.80;;;;;;2111532;28;20054;-72
2020/12/18 02:15:15;;;;;;;4.03;2.47;;;9.70;68.80;;;;;;2113004;28;20038;-73
2020/12/18 02:16:16;;;;;;;8.15;2.85;;;9.70;68.90;;;;;;2111557;28;20114;-71
2020/12/18 02:17:18;;;;;;;7.78;3.20;;;9.70;68.80;;;;;;2112305;28;20059;-71
2020/12/18 02:18:23;;;;;;;7.25;3.22;;;9.70;68.80;;;;;;2112331;28;20705;-71
2020/12/18 02:19:31;;;;;;;5.50;2.90;;;9.80;69.00;;;;;;2103286;28;20057;-71
2020/12/18 02:20:32;;;;;;;5.93;3.08;;;9.70;68.90;;;;;;2104434;28;20482;-71
2020/12/18 02:21:37;;;;;;;4.10;3.15;;;9.80;68.90;;;;;;2113326;28;20062;-71
2020/12/18 02:22:38;;;;;;;4.22;2.63;;;9.70;68.90;;;;;;2112301;28;20050;-71
2020/12/18 02:23:43;;;;;;;7.40;2.85;;;9.70;68.80;;;;;;2112759;28;20019;-71
2020/12/18 02:24:55;;;;;;;3.55;2.78;;;9.70;68.80;;;;;;2112527;28;20019;-71
2020/12/18 02:26:05;;;;;;;10.48;3.58;;;9.70;68.80;;;;;;2112317;28;20110;-71
2020/12/18 02:27:08;;;;;;;4.90;2.95;;;9.80;68.90;;;;;;2112767;28;20525;-71
2020/12/18 02:28:11;;;;;;;3.47;2.45;;;9.80;68.70;;;;;;2112959;28;20035;-71
2020/12/18 02:29:12;;;;;;;5.78;2.53;;;9.70;68.70;;;;;;2112116;28;20640;-71
2020/12/18 02:30:13;;;;;;;5.32;2.70;;;9.80;68.70;;;;;;2112377;28;20027;-72
2020/12/18 02:31:15;;;;;;;6.22;3.22;;;9.70;68.60;;;;;;2110130;28;20119;-71
2020/12/18 02:32:15;;;;;;;6.53;3.03;;;9.70;68.60;;;;;;2112758;28;20050;-71
2020/12/18 02:33:16;;;;;;;8.07;3.75;;;9.70;68.70;;;;;;2112812;28;20102;-71
2020/12/18 02:34:26;;;;;;;6.47;3.33;;;9.70;68.60;;;;;;2113009;28;20042;-71
2020/12/18 02:35:26;;;;;;;;;;;9.70;68.70;;;;;;2113193;28;20084;-72
2020/12/18 02:36:27;;;;;;;5.80;2.70;;;9.70;68.90;;;;;;2112927;28;19965;-72
2020/12/18 02:37:28;;;;;;;4.57;2.90;;;9.70;68.50;;;;;;2112476;28;20036;-71
2020/12/18 02:38:29;;;;;;;8.52;3.17;;;9.70;68.50;;;;;;2112361;28;20042;-71
2020/12/18 02:39:29;;;;;;;6.30;3.42;;;9.70;68.40;;;;;;2111557;28;20042;-71
2020/12/18 02:40:30;;;;;;;6.53;3.10;;;9.70;68.50;;;;;;2112212;28;20128;-72
2020/12/18 02:41:30;;;;;;;6.82;3.50;;;9.70;68.50;;;;;;2112243;28;20465;-71
2020/12/18 02:42:31;;;;;;;7.90;3.47;;;9.70;69.20;;;;;;2103792;28;20539;-72
2020/12/18 02:43:32;;;;;;;4.05;2.70;;;9.70;68.50;;;;;;2103876;28;20042;-71
2020/12/18 02:44:32;;;;;;;8.80;3.30;;;9.70;68.60;;;;;;2112128;28;20039;-72
2020/12/18 02:45:33;;;;;;;7.10;2.90;;;9.70;68.60;;;;;;2112082;28;20445;-72
2020/12/18 02:46:33;;;;;;;8.10;3.13;;;9.70;68.60;;;;;;2111585;28;20028;-73
2020/12/18 02:47:34;;;;;;;7.22;3.38;;;9.70;68.60;;;;;;2113031;28;20051;-72
2020/12/18 02:48:35;;;;;;;5.35;2.97;;;9.70;68.60;;;;;;2103177;28;20024;-73
2020/12/18 02:49:35;;;;;;;7.55;3.40;;;9.70;68.50;;;;;;2104429;28;20020;-75
2020/12/18 02:50:37;;;;;;;8.40;3.40;;;9.70;68.60;;;;;;2112055;28;20031;-76
2020/12/18 02:51:38;;;;;;;5.53;3.25;;;9.60;68.60;;;;;;2112045;28;20023;-73
2020/12/18 02:52:38;;;;;;;7.28;3.00;;;9.70;68.60;;;;;;2112590;28;20020;-73
2020/12/18 02:53:39;;;;;;;7.65;3.45;;;9.60;68.50;;;;;;2112396;28;20096;-72
2020/12/18 02:54:39;;;;;;;6.70;3.13;;;9.60;68.50;;;;;;2110780;28;20930;-71
2020/12/18 02:55:41;;;;;;;4.50;3.00;;;9.60;68.60;;;;;;2112764;28;20522;-73
2020/12/18 02:56:42;;;;;;;7.80;3.03;;;9.60;68.50;;;;;;2111915;28;20039;-77
2020/12/18 02:57:42;;;;;;;5.95;2.92;;;9.60;68.60;;;;;;2112843;28;20099;-75
2020/12/18 02:58:43;;;;;;;4.68;2.72;;;9.60;68.60;;;;;;2112385;28;20126;-76
2020/12/18 02:59:43;;;;;;;9.18;3.15;;;9.60;68.60;;;;;;2112552;28;20388;-74
2020/12/18 03:00:44;;;;;;;5.13;2.97;;;9.60;68.60;;;;;;2095849;28;20528;-75
2020/12/18 03:01:44;;;;;;;8.20;3.10;;;9.60;68.50;;;;;;2094923;28;20127;-71
2020/12/18 03:02:45;;;;;;;3.75;2.80;;;9.60;68.60;;;;;;2112591;28;20015;-70
2020/12/18 03:03:46;;;;;;;4.30;3.00;;;9.60;68.60;;;;;;2113133;28;20109;-71
2020/12/18 03:04:46;;;;;;;6.32;2.95;;;9.60;69.30;;;;;;2112232;28;20024;-71
2020/12/18 03:05:47;;;;;;;4.75;2.92;;;9.60;68.60;;;;;;2112662;28;20034;-73
2020/12/18 03:06:47;;;;;;;4.43;2.90;;;9.60;68.60;;;;;;2113110;28;20508;-74
2020/12/18 03:07:48;;;;;;;6.03;3.28;;;9.60;68.70;;;;;;2095293;28;20713;-71
2020/12/18 03:08:48;;;;;;;4.45;2.75;;;9.60;68.70;;;;;;2094783;28;20153;-72
2020/12/18 03:09:49;;;;;;;3.47;2.80;;;9.60;68.70;;;;;;2111484;28;20043;-70
2020/12/18 03:10:49;;;;;;;8.75;3.10;;;9.60;68.70;;;;;;2111212;28;20112;-71
2020/12/18 03:11:50;;;;;;;3.05;2.72;;;9.60;68.70;;;;;;2111626;28;20028;-72
2020/12/18 03:12:51;;;;;;;5.72;2.90;;;9.60;68.70;;;;;;2111798;28;20097;-71
2020/12/18 03:13:52;;;;;;;11.02;2.90;;;9.60;68.80;;;;;;2111869;28;20446;-72
2020/12/18 03:14:52;;;;;;;7.38;2.63;;;9.60;68.80;;;;;;2103578;28;20032;-72
2020/12/18 03:15:53;;;;;;;7.22;2.83;;;9.60;68.80;;;;;;2102834;28;20115;-71
2020/12/18 03:16:53;;;;;;;4.75;2.80;;;9.60;68.80;;;;;;2102678;28;20077;-72
2020/12/18 03:17:54;;;;;;;5.20;2.95;;;9.60;68.80;;;;;;2103120;28;20070;-70
2020/12/18 03:18:54;;;;;;;4.75;2.63;;;9.60;68.80;;;;;;2103615;28;20035;-71
2020/12/18 03:19:55;;;;;;;7.35;3.22;;;9.60;68.80;;;;;;2112480;28;20438;-73
2020/12/18 03:20:55;;;;;;;8.23;2.85;;;9.60;68.80;;;;;;2111973;28;20408;-70
2020/12/18 03:21:56;;;;;;;4.88;3.35;;;9.60;68.80;;;;;;2112300;28;20024;-74
2020/12/18 03:22:57;;;;;;;6.35;2.92;;;9.60;68.80;;;;;;2111804;28;20101;-70
2020/12/18 03:23:57;;;;;;;5.95;2.80;;;9.60;68.70;;;;;;2115612;28;20043;-71
2020/12/18 03:24:58;;;;;;;4.88;2.67;;;9.60;68.80;;;;;;2115193;28;20134;-71
2020/12/18 03:25:59;;;;;;;4.72;2.63;;;9.60;68.70;;;;;;2114314;28;20055;-71
2020/12/18 03:27:00;;;;;;;9.00;3.00;;;9.60;68.80;;;;;;2114893;28;20030;-71
2020/12/18 03:28:00;;;;;;;4.10;2.40;;;9.60;68.70;;;;;;2114250;28;20119;-72
2020/12/18 03:29:01;;;;;;;4.93;2.72;;;9.60;68.70;;;;;;2114073;28;20084;-71
2020/12/18 03:30:02;;;;;;;3.70;2.78;;;9.60;68.70;;;;;;2115654;28;20039;-71
2020/12/18 03:31:03;;;;;;;5.40;3.20;;;9.60;68.60;;;;;;2113460;28;20081;-70
2020/12/18 03:32:03;;;;;;;3.47;2.65;;;9.60;68.60;;;;;;2114064;28;20062;-72
2020/12/18 03:33:05;;;;;;;5.88;2.85;;;9.60;68.70;;;;;;2115245;28;20038;-73
2020/12/18 03:34:05;;;;;;;3.80;2.72;;;9.60;68.70;;;;;;2105972;28;20020;-73
2020/12/18 03:35:06;;;;;;;4.63;2.70;;;9.60;68.60;;;;;;2106489;28;20119;-71
2020/12/18 03:36:07;;;;;;;7.63;2.88;;;9.60;68.60;;;;;;2115157;28;20023;-73
2020/12/18 03:37:07;;;;;;;7.60;3.20;;;9.60;68.60;;;;;;2115277;28;20023;-70
2020/12/18 03:38:08;;;;;;;6.20;2.90;;;9.50;68.50;;;;;;2115402;28;20028;-73
2020/12/18 03:39:08;;;;;;;7.95;3.92;;;9.50;68.50;;;;;;2114873;28;20548;-71
2020/12/18 03:40:09;;;;;;;5.97;2.95;;;9.50;68.50;;;;;;2115583;28;20046;-72
2020/12/18 03:41:10;;;;;;;6.88;3.50;;;9.50;68.50;;;;;;2114672;28;20038;-71
2020/12/18 03:42:10;;;;;;;6.00;3.10;;;9.60;68.60;;;;;;2115072;28;20031;-71
2020/12/18 03:43:11;;;;;;;5.22;3.00;;;9.50;68.50;;;;;;2114787;28;20481;-73
2020/12/18 03:44:11;;;;;;;4.60;2.95;;;9.50;68.50;;;;;;2114809;28;20031;-71
2020/12/18 03:45:12;;;;;;;8.63;3.30;;;9.50;68.50;;;;;;2114897;28;20008;-70
2020/12/18 03:46:14;;;;;;;5.13;2.75;;;9.50;68.50;;;;;;2113344;28;20485;-71
2020/12/18 03:47:14;;;;;;;7.53;2.63;;;9.50;68.50;;;;;;2115251;28;20047;-72
2020/12/18 03:48:15;;;;;;;4.53;2.90;;;9.50;68.60;;;;;;2115098;28;20081;-72
2020/12/18 03:49:15;;;;;;;6.82;2.60;;;9.60;68.60;;;;;;2115037;28;20028;-71
2020/12/18 03:50:16;;;;;;;5.65;2.92;;;9.50;68.50;;;;;;2114011;28;20532;-71
2020/12/18 03:51:17;;;;;;;9.10;3.38;;;9.50;68.50;;;;;;2114482;28;20485;-71
2020/12/18 03:52:17;;;;;;;4.72;3.03;;;9.50;68.50;;;;;;2115788;28;20761;-71
2020/12/18 03:53:19;;;;;;;6.93;3.10;;;9.50;68.50;;;;;;2114864;28;20038;-71
2020/12/18 03:54:19;;;;;;;6.30;3.05;;;9.50;68.60;;;;;;2113737;28;20048;-72
2020/12/18 03:55:20;;;;;;;5.68;2.63;;;9.50;68.50;;;;;;2104933;28;20060;-72
2020/12/18 03:56:20;;;;;;;9.43;2.83;;;9.50;68.50;;;;;;2105398;28;20071;-71
2020/12/18 03:57:22;;;;;;;8.55;3.17;;;9.50;68.50;;;;;;2106748;28;20074;-72
2020/12/18 03:58:23;;;;;;;4.07;2.85;;;9.50;68.60;;;;;;2106714;28;20028;-71
2020/12/18 03:59:23;;;;;;;5.30;3.22;;;9.50;68.60;;;;;;2113576;28;20735;-72
2020/12/18 04:00:24;;;;;;;5.35;2.90;;;9.50;68.60;;;;;;2115372;28;20131;-73
2020/12/18 04:01:25;;;;;;;4.60;2.78;;;9.50;68.50;;;;;;2114088;28;20354;-71
2020/12/18 04:02:26;;;;;;;6.30;2.67;;;9.50;68.50;;;;;;2115158;28;20023;-71
2020/12/18 04:03:26;;;;;;;9.50;2.78;;;9.50;68.50;;;;;;2115233;28;20031;-71
2020/12/18 04:04:27;;;;;;;6.03;2.70;;;9.50;68.50;;;;;;2105437;28;20089;-72
2020/12/18 04:05:28;;;;;;;8.10;3.15;;;9.40;68.50;;;;;;2106459;28;20020;-71
2020/12/18 04:06:28;;;;;;;5.82;2.85;;;9.50;68.50;;;;;;2114558;28;20069;-71
2020/12/18 04:07:29;;;;;;;8.95;3.13;;;9.50;68.50;;;;;;2105778;28;20028;-72
2020/12/18 04:08:29;;;;;;;7.32;2.78;;;9.50;68.50;;;;;;2105673;28;20054;-71
2020/12/18 04:09:30;;;;;;;5.95;2.85;;;9.50;68.50;;;;;;2115234;28;20525;-72
2020/12/18 04:10:31;;;;;;;6.03;2.70;;;9.50;68.50;;;;;;2114400;28;20111;-72
2020/12/18 04:11:31;;;;;;;5.45;2.67;;;9.50;68.60;;;;;;2114853;28;20036;-72
2020/12/18 04:12:32;;;;;;;6.47;2.58;;;9.50;68.60;;;;;;2114857;28;20031;-73
2020/12/18 04:13:32;;;;;;;5.05;3.25;;;9.50;68.50;;;;;;2115089;28;20057;-72
2020/12/18 04:14:34;;;;;;;10.68;2.38;;;9.50;68.60;;;;;;2114322;28;20108;-73
2020/12/18 04:15:34;;;;;;;7.45;3.30;;;9.50;68.60;;;;;;2106306;28;20678;-72
2020/12/18 04:16:35;;;;;;;3.55;2.20;;;9.50;68.60;;;;;;2105655;28;20122;-72
2020/12/18 04:17:35;;;;;;;5.78;2.90;;;9.50;68.60;;;;;;2114926;28;20046;-71
2020/12/18 04:18:36;;;;;;;5.85;2.80;;;9.40;68.50;;;;;;2115686;28;20039;-72
2020/12/18 04:19:37;;;;;;;4.28;2.42;;;9.40;68.50;;;;;;2115381;28;20027;-72
2020/12/18 04:20:37;;;;;;;9.35;3.08;;;9.40;68.50;;;;;;2113973;28;20028;-71
2020/12/18 04:21:38;;;;;;;7.97;3.38;;;9.40;68.50;;;;;;2115166;28;20039;-71
2020/12/18 04:22:38;;;;;;;8.60;2.75;;;9.40;68.50;;;;;;2114922;28;20043;-71
2020/12/18 04:23:39;;;;;;;6.55;3.15;;;9.40;68.50;;;;;;2114831;28;20034;-71
2020/12/18 04:24:39;;;;;;;7.43;3.00;;;9.40;68.50;;;;;;2114615;28;20020;-71
2020/12/18 04:25:40;;;;;;;8.02;3.10;;;9.40;68.50;;;;;;2114814;28;20531;-72
2020/12/18 04:26:40;;;;;;;6.20;2.78;;;9.40;68.40;;;;;;2115748;28;20680;-72
2020/12/18 04:27:41;;;;;;;6.22;3.08;;;9.40;68.40;;;;;;2115040;28;20032;-71
2020/12/18 04:28:42;;;;;;;3.55;2.45;;;9.40;68.50;;;;;;2114181;28;20106;-72
2020/12/18 04:29:43;;;;;;;5.82;2.90;;;9.40;68.50;;;;;;2114757;28;20055;-71
2020/12/18 04:30:43;;;;;;;3.95;2.70;;;9.40;68.50;;;;;;2113886;28;20024;-71
2020/12/18 04:31:44;;;;;;;7.68;2.75;;;9.40;68.50;;;;;;2105110;28;20058;-71
2020/12/18 04:32:45;;;;;;;4.53;3.10;;;9.40;68.50;;;;;;2106160;28;20488;-71
2020/12/18 04:33:46;;;;;;;7.32;2.97;;;9.40;68.50;;;;;;2105993;28;20028;-71
2020/12/18 04:34:46;;;;;;;4.57;2.75;;;9.40;68.50;;;;;;2105647;28;20362;-72
2020/12/18 04:35:47;;;;;;;8.15;3.15;;;9.40;68.50;;;;;;2113500;28;20350;-71
2020/12/18 04:36:47;;;;;;;6.28;2.78;;;9.40;68.50;;;;;;2113545;28;20091;-71
2020/12/18 04:37:48;;;;;;;6.05;2.78;;;9.40;68.50;;;;;;2112622;28;20050;-71
2020/12/18 04:38:48;;;;;;;4.55;2.72;;;9.40;68.50;;;;;;2113208;28;20080;-72
2020/12/18 04:39:49;;;;;;;7.32;3.08;;;9.40;68.60;;;;;;2113573;28;20039;-71
2020/12/18 04:40:50;;;;;;;6.35;2.80;;;9.30;68.60;;;;;;2113120;28;20027;-71
2020/12/18 04:41:51;;;;;;;5.22;2.55;;;9.40;68.60;;;;;;2113552;28;20031;-71
2020/12/18 04:42:53;;;;;;;4.65;2.58;;;9.30;68.60;;;;;;2113648;28;20028;-71
2020/12/18 04:43:54;;;;;;;5.07;2.83;;;9.40;68.70;;;;;;2113259;28;20067;-71
2020/12/18 04:44:55;;;;;;;6.85;3.00;;;9.40;68.60;;;;;;2104486;28;20041;-71
2020/12/18 04:45:58;;;;;;;5.55;2.90;;;9.30;68.50;;;;;;2103939;28;20016;-71
2020/12/18 04:46:59;;;;;;;8.18;3.10;;;9.30;68.60;;;;;;2113082;28;20040;-72
2020/12/18 04:48:01;;;;;;;4.70;2.70;;;9.40;68.60;;;;;;2113175;28;20024;-70
2020/12/18 04:49:03;;;;;;;4.55;2.67;;;9.30;68.50;;;;;;2112609;28;20019;-71
2020/12/18 04:50:04;;;;;;;5.00;2.78;;;9.30;68.50;;;;;;2113347;28;20035;-71
2020/12/18 04:51:05;;;;;;;9.75;2.78;;;9.30;68.40;;;;;;2096508;28;20167;-71
2020/12/18 04:52:10;;;;;;;4.10;2.67;;;9.30;68.40;;;;;;2096421;28;20062;-71
2020/12/18 04:53:12;;;;;;;7.40;2.88;;;9.30;68.40;;;;;;2113109;28;20023;-71
2020/12/18 04:54:14;;;;;;;6.53;2.80;;;9.30;68.30;;;;;;2112852;28;20030;-71
2020/12/18 04:55:17;;;;;;;7.00;3.33;;;9.30;68.30;;;;;;2112922;28;20035;-71
2020/12/18 04:56:25;;;;;;;6.97;2.90;;;9.30;68.30;;;;;;2112882;28;20028;-71
2020/12/18 04:57:28;;;;;;;4.82;2.83;;;9.30;68.30;;;;;;2114177;28;20028;-71
2020/12/18 04:58:29;;;;;;;6.90;2.80;;;9.30;68.30;;;;;;2101229;28;20039;-72
2020/12/18 04:59:32;;;;;;;5.00;2.58;;;9.30;68.30;;;;;;2101596;28;20043;-70
2020/12/18 05:00:34;;;;;;;8.32;2.78;;;9.20;68.20;;;;;;2113037;28;20035;-71
2020/12/18 05:01:35;;;;;;;6.32;2.80;;;9.30;68.30;;;;;;2099816;28;20048;-71
2020/12/18 05:02:36;;;;;;;6.43;2.90;;;9.30;68.30;;;;;;2100698;28;20553;-70
2020/12/18 05:03:36;;;;;;;5.18;3.00;;;9.30;68.30;;;;;;2101921;28;20119;-71
2020/12/18 05:04:40;;;;;;;5.25;3.15;;;9.30;68.30;;;;;;2113676;28;20031;-72
2020/12/18 05:05:41;;;;;;;11.93;3.00;;;9.20;68.30;;;;;;2113031;28;20030;-71
2020/12/18 05:06:41;;;;;;;4.47;2.92;;;9.20;68.30;;;;;;2113779;28;20038;-71
2020/12/18 05:07:42;;;;;;;6.30;2.83;;;9.20;68.20;;;;;;2112659;28;20004;-71
2020/12/18 05:08:43;;;;;;;7.15;3.20;;;9.20;68.30;;;;;;2112899;28;20038;-71
2020/12/18 05:09:50;;;;;;;5.55;2.92;;;9.20;68.30;;;;;;2113047;28;20023;-71
2020/12/18 05:10:50;;;;;;;4.10;3.05;;;9.20;68.40;;;;;;2112336;28;20042;-71
2020/12/18 05:12:07;;;;;;;11.73;3.33;;;9.20;68.40;;;;;;2112495;28;20024;-71
2020/12/18 05:13:07;;;;;;;8.25;3.13;;;9.20;68.50;;;;;;2113380;28;20064;-71
2020/12/18 05:14:08;;;;;;;8.07;3.10;;;9.10;68.30;;;;;;2112795;28;20048;-71
2020/12/18 05:15:08;;;;;;;5.80;2.92;;;9.10;68.30;;;;;;2113401;28;20031;-71
2020/12/18 05:16:09;;;;;;;10.48;3.10;;;9.20;68.40;;;;;;2111895;28;20036;-70
2020/12/18 05:17:11;;;;;;;5.88;2.80;;;9.20;68.40;;;;;;2113031;28;20133;-71
2020/12/18 05:18:12;;;;;;;6.50;3.35;;;9.10;68.40;;;;;;2113596;28;20023;-71
2020/12/18 05:19:15;;;;;;;3.42;2.95;;;9.10;68.40;;;;;;2113077;28;20115;-71
2020/12/18 05:20:16;;;;;;;5.32;3.10;;;9.10;68.50;;;;;;2112355;28;20020;-73
2020/12/18 05:21:18;;;;;;;8.32;3.00;;;9.10;68.50;;;;;;2113473;28;20028;-71
2020/12/18 05:22:22;;;;;;;7.18;3.10;;;9.10;68.50;;;;;;2104210;28;20658;-70